sensor_id;sensor_type;location;lat;lon;timestamp;P1;durP1;ratioP1;P2;durP2;ratioP2
76814;SDS011;65768;49.906;19.384;2022-12-07T00:01:41;34.80;;;20.90;;
76814;SDS011;65768;49.906;19.384;2022-12-07T00:04:11;39.90;;;26.60;;
76814;SDS011;65768;49.906;19.384;2022-12-07T00:06:41;24.50;;;15.10;;
76814;SDS011;65768;49.906;19.384;2022-12-07T00:09:12;24.80;;;12.40;;
76814;SDS011;65768;49.906;19.384;2022-12-07T00:11:42;24.10;;;14.50;;
76814;SDS011;65768;49.906;19.384;2022-12-07T00:14:12;22.10;;;13.40;;
76814;SDS011;65768;49.906;19.384;2022-12-07T00:16:43;32.20;;;19.20;;
76814;SDS011;65768;49.906;19.384;2022-12-07T00:19:12;30.70;;;18.30;;
76814;SDS011;65768;49.906;19.384;2022-12-07T00:21:41;29.90;;;17.60;;
76814;SDS011;65768;49.906;19.384;2022-12-07T00:24:09;26.50;;;17.50;;
76814;SDS011;65768;49.906;19.384;2022-12-07T00:26:38;29.50;;;16.10;;
76814;SDS011;65768;49.906;19.384;2022-12-07T00:29:21;27.10;;;17.20;;
76814;SDS011;65768;49.906;19.384;2022-12-07T00:31:49;30.90;;;17.80;;
76814;SDS011;65768;49.906;19.384;2022-12-07T00:34:18;40.10;;;24.20;;
76814;SDS011;65768;49.906;19.384;2022-12-07T00:36:47;39.20;;;22.40;;
76814;SDS011;65768;49.906;19.384;2022-12-07T00:39:16;28.00;;;18.70;;
76814;SDS011;65768;49.906;19.384;2022-12-07T00:41:44;28.50;;;16.70;;
76814;SDS011;65768;49.906;19.384;2022-12-07T00:44:12;26.90;;;16.10;;
76814;SDS011;65768;49.906;19.384;2022-12-07T00:46:40;29.40;;;17.20;;
76814;SDS011;65768;49.906;19.384;2022-12-07T00:49:08;28.00;;;16.10;;
76814;SDS011;65768;49.906;19.384;2022-12-07T00:51:39;30.90;;;20.00;;
76814;SDS011;65768;49.906;19.384;2022-12-07T00:54:07;29.50;;;17.90;;
76814;SDS011;65768;49.906;19.384;2022-12-07T00:56:35;22.00;;;13.40;;
76814;SDS011;65768;49.906;19.384;2022-12-07T00:59:03;25.90;;;14.20;;
76814;SDS011;65768;49.906;19.384;2022-12-07T01:01:33;23.10;;;14.00;;
76814;SDS011;65768;49.906;19.384;2022-12-07T01:04:03;27.10;;;14.50;;
76814;SDS011;65768;49.906;19.384;2022-12-07T01:06:31;22.90;;;13.90;;
76814;SDS011;65768;49.906;19.384;2022-12-07T01:08:59;24.10;;;14.30;;
76814;SDS011;65768;49.906;19.384;2022-12-07T01:11:28;24.80;;;14.60;;
76814;SDS011;65768;49.906;19.384;2022-12-07T01:13:58;21.40;;;14.20;;
76814;SDS011;65768;49.906;19.384;2022-12-07T01:16:28;18.90;;;12.60;;
76814;SDS011;65768;49.906;19.384;2022-12-07T01:18:58;23.80;;;12.70;;
76814;SDS011;65768;49.906;19.384;2022-12-07T01:21:28;24.90;;;14.20;;
76814;SDS011;65768;49.906;19.384;2022-12-07T01:23:57;25.10;;;13.10;;
76814;SDS011;65768;49.906;19.384;2022-12-07T01:26:25;32.10;;;17.30;;
76814;SDS011;65768;49.906;19.384;2022-12-07T01:28:54;28.70;;;16.80;;
76814;SDS011;65768;49.906;19.384;2022-12-07T01:31:23;22.90;;;13.20;;
76814;SDS011;65768;49.906;19.384;2022-12-07T01:33:56;20.50;;;12.40;;
76814;SDS011;65768;49.906;19.384;2022-12-07T01:36:26;24.40;;;15.00;;
76814;SDS011;65768;49.906;19.384;2022-12-07T01:38:57;24.30;;;14.30;;
76814;SDS011;65768;49.906;19.384;2022-12-07T01:41:29;23.50;;;13.30;;
76814;SDS011;65768;49.906;19.384;2022-12-07T01:44:10;40.80;;;23.30;;
76814;SDS011;65768;49.906;19.384;2022-12-07T01:46:49;35.40;;;19.80;;
76814;SDS011;65768;49.906;19.384;2022-12-07T01:50:06;30.10;;;16.50;;
76814;SDS011;65768;49.906;19.384;2022-12-07T01:52:17;29.20;;;17.50;;
76814;SDS011;65768;49.906;19.384;2022-12-07T01:54:51;29.50;;;17.00;;
76814;SDS011;65768;49.906;19.384;2022-12-07T01:57:22;36.40;;;19.50;;
76814;SDS011;65768;49.906;19.384;2022-12-07T01:59:51;48.00;;;26.30;;
76814;SDS011;65768;49.906;19.384;2022-12-07T02:02:27;45.10;;;25.10;;
76814;SDS011;65768;49.906;19.384;2022-12-07T02:05:00;37.80;;;19.90;;
76814;SDS011;65768;49.906;19.384;2022-12-07T02:07:30;38.80;;;23.40;;
76814;SDS011;65768;49.906;19.384;2022-12-07T02:10:17;33.00;;;17.80;;
76814;SDS011;65768;49.906;19.384;2022-12-07T02:12:52;38.60;;;22.60;;
76814;SDS011;65768;49.906;19.384;2022-12-07T02:15:26;41.40;;;26.40;;
76814;SDS011;65768;49.906;19.384;2022-12-07T02:18:07;32.80;;;19.90;;
76814;SDS011;65768;49.906;19.384;2022-12-07T02:34:49;16.30;;;10.20;;
76814;SDS011;65768;49.906;19.384;2022-12-07T02:37:29;10.60;;;7.70;;
76814;SDS011;65768;49.906;19.384;2022-12-07T02:42:49;17.30;;;12.00;;
76814;SDS011;65768;49.906;19.384;2022-12-07T02:45:23;13.70;;;7.50;;
76814;SDS011;65768;49.906;19.384;2022-12-07T02:47:55;13.10;;;6.40;;
76814;SDS011;65768;49.906;19.384;2022-12-07T02:50:26;15.20;;;8.50;;
76814;SDS011;65768;49.906;19.384;2022-12-07T02:52:55;11.50;;;6.10;;
76814;SDS011;65768;49.906;19.384;2022-12-07T02:55:28;10.10;;;6.50;;
76814;SDS011;65768;49.906;19.384;2022-12-07T02:58:05;7.10;;;4.20;;
76814;SDS011;65768;49.906;19.384;2022-12-07T03:03:52;10.70;;;6.30;;
76814;SDS011;65768;49.906;19.384;2022-12-07T03:06:31;12.70;;;8.10;;
76814;SDS011;65768;49.906;19.384;2022-12-07T03:12:16;9.40;;;5.80;;
76814;SDS011;65768;49.906;19.384;2022-12-07T03:14:50;11.80;;;6.50;;
76814;SDS011;65768;49.906;19.384;2022-12-07T03:17:26;6.40;;;4.00;;
76814;SDS011;65768;49.906;19.384;2022-12-07T03:19:58;6.70;;;4.00;;
76814;SDS011;65768;49.906;19.384;2022-12-07T03:22:32;8.00;;;4.30;;
76814;SDS011;65768;49.906;19.384;2022-12-07T03:25:04;14.00;;;6.30;;
76814;SDS011;65768;49.906;19.384;2022-12-07T03:27:37;10.20;;;5.60;;
76814;SDS011;65768;49.906;19.384;2022-12-07T03:30:14;9.00;;;5.60;;
76814;SDS011;65768;49.906;19.384;2022-12-07T03:32:49;9.70;;;4.50;;
76814;SDS011;65768;49.906;19.384;2022-12-07T03:38:00;7.50;;;5.00;;
76814;SDS011;65768;49.906;19.384;2022-12-07T03:40:47;6.70;;;3.80;;
76814;SDS011;65768;49.906;19.384;2022-12-07T03:43:28;10.60;;;6.50;;
76814;SDS011;65768;49.906;19.384;2022-12-07T03:46:02;7.00;;;4.20;;
76814;SDS011;65768;49.906;19.384;2022-12-07T03:51:49;10.10;;;6.00;;
76814;SDS011;65768;49.906;19.384;2022-12-07T03:54:36;7.40;;;4.50;;
76814;SDS011;65768;49.906;19.384;2022-12-07T03:57:09;8.40;;;5.20;;
76814;SDS011;65768;49.906;19.384;2022-12-07T03:59:39;6.80;;;4.20;;
76814;SDS011;65768;49.906;19.384;2022-12-07T04:02:08;9.20;;;5.20;;
76814;SDS011;65768;49.906;19.384;2022-12-07T04:04:40;8.70;;;5.50;;
76814;SDS011;65768;49.906;19.384;2022-12-07T04:07:10;8.80;;;3.80;;
76814;SDS011;65768;49.906;19.384;2022-12-07T04:09:38;10.10;;;4.50;;
76814;SDS011;65768;49.906;19.384;2022-12-07T04:12:06;7.00;;;4.20;;
76814;SDS011;65768;49.906;19.384;2022-12-07T04:14:34;9.90;;;5.70;;
76814;SDS011;65768;49.906;19.384;2022-12-07T04:17:02;8.40;;;5.20;;
76814;SDS011;65768;49.906;19.384;2022-12-07T04:19:31;10.90;;;5.50;;
76814;SDS011;65768;49.906;19.384;2022-12-07T04:22:01;7.30;;;4.70;;
76814;SDS011;65768;49.906;19.384;2022-12-07T04:24:30;7.70;;;4.70;;
76814;SDS011;65768;49.906;19.384;2022-12-07T04:26:59;7.90;;;4.40;;
76814;SDS011;65768;49.906;19.384;2022-12-07T04:29:26;7.20;;;4.80;;
76814;SDS011;65768;49.906;19.384;2022-12-07T04:31:54;8.50;;;4.70;;
76814;SDS011;65768;49.906;19.384;2022-12-07T04:34:22;6.00;;;3.70;;
76814;SDS011;65768;49.906;19.384;2022-12-07T04:36:50;8.00;;;4.10;;
76814;SDS011;65768;49.906;19.384;2022-12-07T04:41:48;10.20;;;6.20;;
76814;SDS011;65768;49.906;19.384;2022-12-07T04:44:16;7.50;;;4.10;;
76814;SDS011;65768;49.906;19.384;2022-12-07T04:46:46;9.50;;;5.10;;
76814;SDS011;65768;49.906;19.384;2022-12-07T04:49:14;8.50;;;5.80;;
76814;SDS011;65768;49.906;19.384;2022-12-07T04:51:43;7.60;;;4.80;;
76814;SDS011;65768;49.906;19.384;2022-12-07T04:54:12;9.10;;;6.00;;
76814;SDS011;65768;49.906;19.384;2022-12-07T04:56:41;8.50;;;5.20;;
76814;SDS011;65768;49.906;19.384;2022-12-07T04:59:11;10.40;;;5.20;;
76814;SDS011;65768;49.906;19.384;2022-12-07T05:01:41;11.80;;;6.70;;
76814;SDS011;65768;49.906;19.384;2022-12-07T05:04:09;9.00;;;5.40;;
76814;SDS011;65768;49.906;19.384;2022-12-07T05:06:37;9.00;;;6.10;;
76814;SDS011;65768;49.906;19.384;2022-12-07T05:09:05;8.10;;;4.20;;
76814;SDS011;65768;49.906;19.384;2022-12-07T05:11:33;8.10;;;3.70;;
76814;SDS011;65768;49.906;19.384;2022-12-07T05:14:17;11.10;;;5.60;;
76814;SDS011;65768;49.906;19.384;2022-12-07T05:16:48;12.20;;;6.80;;
76814;SDS011;65768;49.906;19.384;2022-12-07T05:19:18;9.80;;;5.00;;
76814;SDS011;65768;49.906;19.384;2022-12-07T05:21:46;9.40;;;4.30;;
76814;SDS011;65768;49.906;19.384;2022-12-07T05:24:15;10.10;;;5.70;;
76814;SDS011;65768;49.906;19.384;2022-12-07T05:26:45;13.30;;;7.20;;
76814;SDS011;65768;49.906;19.384;2022-12-07T05:29:13;14.40;;;7.40;;
76814;SDS011;65768;49.906;19.384;2022-12-07T05:31:43;12.50;;;7.40;;
76814;SDS011;65768;49.906;19.384;2022-12-07T05:34:11;12.00;;;6.40;;
76814;SDS011;65768;49.906;19.384;2022-12-07T05:36:40;13.30;;;6.60;;
76814;SDS011;65768;49.906;19.384;2022-12-07T05:39:07;16.70;;;9.20;;
76814;SDS011;65768;49.906;19.384;2022-12-07T05:41:35;10.70;;;5.50;;
76814;SDS011;65768;49.906;19.384;2022-12-07T05:44:22;11.70;;;5.60;;
76814;SDS011;65768;49.906;19.384;2022-12-07T05:46:50;10.30;;;5.50;;
76814;SDS011;65768;49.906;19.384;2022-12-07T05:49:18;9.90;;;5.80;;
76814;SDS011;65768;49.906;19.384;2022-12-07T05:51:46;13.50;;;8.30;;
76814;SDS011;65768;49.906;19.384;2022-12-07T05:54:14;14.40;;;8.10;;
76814;SDS011;65768;49.906;19.384;2022-12-07T05:56:42;12.90;;;7.10;;
76814;SDS011;65768;49.906;19.384;2022-12-07T05:59:09;10.30;;;5.50;;
76814;SDS011;65768;49.906;19.384;2022-12-07T06:01:54;13.80;;;7.20;;
76814;SDS011;65768;49.906;19.384;2022-12-07T06:04:25;17.50;;;8.30;;
76814;SDS011;65768;49.906;19.384;2022-12-07T06:06:54;12.60;;;8.30;;
76814;SDS011;65768;49.906;19.384;2022-12-07T06:09:22;10.00;;;6.10;;
76814;SDS011;65768;49.906;19.384;2022-12-07T06:11:51;16.50;;;10.20;;
76814;SDS011;65768;49.906;19.384;2022-12-07T06:14:38;19.10;;;9.70;;
76814;SDS011;65768;49.906;19.384;2022-12-07T06:17:07;16.10;;;8.90;;
76814;SDS011;65768;49.906;19.384;2022-12-07T06:19:35;14.80;;;9.00;;
76814;SDS011;65768;49.906;19.384;2022-12-07T06:22:05;12.10;;;6.90;;
76814;SDS011;65768;49.906;19.384;2022-12-07T06:24:33;13.80;;;7.40;;
76814;SDS011;65768;49.906;19.384;2022-12-07T06:27:01;11.40;;;4.30;;
76814;SDS011;65768;49.906;19.384;2022-12-07T06:29:29;21.80;;;10.30;;
76814;SDS011;65768;49.906;19.384;2022-12-07T06:31:58;22.10;;;12.50;;
76814;SDS011;65768;49.906;19.384;2022-12-07T06:34:26;20.70;;;10.40;;
76814;SDS011;65768;49.906;19.384;2022-12-07T06:36:54;19.60;;;11.70;;
76814;SDS011;65768;49.906;19.384;2022-12-07T06:39:24;15.90;;;8.10;;
76814;SDS011;65768;49.906;19.384;2022-12-07T06:41:54;15.60;;;8.60;;
76814;SDS011;65768;49.906;19.384;2022-12-07T06:44:22;16.80;;;8.70;;
76814;SDS011;65768;49.906;19.384;2022-12-07T06:46:51;14.10;;;7.20;;
76814;SDS011;65768;49.906;19.384;2022-12-07T06:49:19;13.70;;;6.60;;
76814;SDS011;65768;49.906;19.384;2022-12-07T06:51:48;10.60;;;6.60;;
76814;SDS011;65768;49.906;19.384;2022-12-07T06:54:16;12.80;;;7.00;;
76814;SDS011;65768;49.906;19.384;2022-12-07T06:56:44;19.60;;;9.60;;
76814;SDS011;65768;49.906;19.384;2022-12-07T06:59:12;15.70;;;7.90;;
76814;SDS011;65768;49.906;19.384;2022-12-07T07:01:39;10.30;;;5.90;;
76814;SDS011;65768;49.906;19.384;2022-12-07T07:04:07;8.20;;;5.60;;
76814;SDS011;65768;49.906;19.384;2022-12-07T07:06:35;10.70;;;6.40;;
76814;SDS011;65768;49.906;19.384;2022-12-07T07:09:03;9.70;;;5.80;;
76814;SDS011;65768;49.906;19.384;2022-12-07T07:11:31;12.40;;;7.20;;
76814;SDS011;65768;49.906;19.384;2022-12-07T07:13:59;14.70;;;6.50;;
76814;SDS011;65768;49.906;19.384;2022-12-07T07:16:30;9.10;;;4.80;;
76814;SDS011;65768;49.906;19.384;2022-12-07T07:18:58;12.60;;;8.30;;
76814;SDS011;65768;49.906;19.384;2022-12-07T07:21:26;7.90;;;5.20;;
76814;SDS011;65768;49.906;19.384;2022-12-07T07:23:54;7.30;;;4.20;;
76814;SDS011;65768;49.906;19.384;2022-12-07T07:26:22;16.20;;;9.40;;
76814;SDS011;65768;49.906;19.384;2022-12-07T07:28:50;8.40;;;5.40;;
76814;SDS011;65768;49.906;19.384;2022-12-07T07:31:18;19.40;;;9.80;;
76814;SDS011;65768;49.906;19.384;2022-12-07T07:33:46;15.40;;;8.90;;
76814;SDS011;65768;49.906;19.384;2022-12-07T07:36:14;8.70;;;4.50;;
76814;SDS011;65768;49.906;19.384;2022-12-07T07:38:42;20.60;;;10.90;;
76814;SDS011;65768;49.906;19.384;2022-12-07T07:41:10;16.50;;;9.00;;
76814;SDS011;65768;49.906;19.384;2022-12-07T07:43:38;16.30;;;8.80;;
76814;SDS011;65768;49.906;19.384;2022-12-07T07:46:05;18.20;;;10.70;;
76814;SDS011;65768;49.906;19.384;2022-12-07T07:48:33;15.20;;;9.40;;
76814;SDS011;65768;49.906;19.384;2022-12-07T07:51:04;21.80;;;13.20;;
76814;SDS011;65768;49.906;19.384;2022-12-07T07:56:02;18.90;;;10.90;;
76814;SDS011;65768;49.906;19.384;2022-12-07T07:58:30;13.70;;;7.10;;
76814;SDS011;65768;49.906;19.384;2022-12-07T08:01:07;23.00;;;12.00;;
76814;SDS011;65768;49.906;19.384;2022-12-07T08:03:36;16.70;;;8.50;;
76814;SDS011;65768;49.906;19.384;2022-12-07T08:06:03;14.90;;;7.40;;
76814;SDS011;65768;49.906;19.384;2022-12-07T08:08:32;14.50;;;7.80;;
76814;SDS011;65768;49.906;19.384;2022-12-07T08:10:59;18.10;;;8.70;;
76814;SDS011;65768;49.906;19.384;2022-12-07T08:13:30;19.10;;;11.20;;
76814;SDS011;65768;49.906;19.384;2022-12-07T08:15:58;18.90;;;10.00;;
76814;SDS011;65768;49.906;19.384;2022-12-07T08:18:30;13.90;;;7.30;;
76814;SDS011;65768;49.906;19.384;2022-12-07T08:20:58;12.00;;;7.10;;
76814;SDS011;65768;49.906;19.384;2022-12-07T08:23:30;11.80;;;7.00;;
76814;SDS011;65768;49.906;19.384;2022-12-07T08:26:09;11.30;;;6.90;;
76814;SDS011;65768;49.906;19.384;2022-12-07T08:28:39;12.00;;;6.90;;
76814;SDS011;65768;49.906;19.384;2022-12-07T08:31:10;16.20;;;9.40;;
76814;SDS011;65768;49.906;19.384;2022-12-07T08:33:46;12.80;;;7.80;;
76814;SDS011;65768;49.906;19.384;2022-12-07T08:36:15;13.70;;;8.30;;
76814;SDS011;65768;49.906;19.384;2022-12-07T08:38:44;10.90;;;7.00;;
76814;SDS011;65768;49.906;19.384;2022-12-07T08:41:12;11.00;;;6.10;;
76814;SDS011;65768;49.906;19.384;2022-12-07T08:43:40;15.20;;;7.80;;
76814;SDS011;65768;49.906;19.384;2022-12-07T08:48:45;22.80;;;11.50;;
76814;SDS011;65768;49.906;19.384;2022-12-07T08:51:17;20.60;;;10.80;;
76814;SDS011;65768;49.906;19.384;2022-12-07T08:53:45;10.20;;;6.20;;
76814;SDS011;65768;49.906;19.384;2022-12-07T08:56:14;8.60;;;4.40;;
76814;SDS011;65768;49.906;19.384;2022-12-07T08:58:41;8.50;;;5.30;;
76814;SDS011;65768;49.906;19.384;2022-12-07T09:01:11;11.60;;;6.70;;
76814;SDS011;65768;49.906;19.384;2022-12-07T09:03:38;15.90;;;8.70;;
76814;SDS011;65768;49.906;19.384;2022-12-07T09:06:07;11.70;;;6.60;;
76814;SDS011;65768;49.906;19.384;2022-12-07T09:08:39;11.60;;;6.90;;
76814;SDS011;65768;49.906;19.384;2022-12-07T09:11:11;10.10;;;6.00;;
76814;SDS011;65768;49.906;19.384;2022-12-07T09:13:39;16.70;;;9.80;;
76814;SDS011;65768;49.906;19.384;2022-12-07T09:16:06;9.40;;;7.10;;
76814;SDS011;65768;49.906;19.384;2022-12-07T09:18:34;14.20;;;8.00;;
76814;SDS011;65768;49.906;19.384;2022-12-07T09:21:02;10.30;;;7.20;;
76814;SDS011;65768;49.906;19.384;2022-12-07T09:23:30;13.10;;;7.40;;
76814;SDS011;65768;49.906;19.384;2022-12-07T09:25:59;11.80;;;8.00;;
76814;SDS011;65768;49.906;19.384;2022-12-07T09:28:32;13.70;;;8.60;;
76814;SDS011;65768;49.906;19.384;2022-12-07T09:31:00;10.20;;;5.40;;
76814;SDS011;65768;49.906;19.384;2022-12-07T09:33:29;10.10;;;6.30;;
76814;SDS011;65768;49.906;19.384;2022-12-07T09:35:58;8.00;;;5.40;;
76814;SDS011;65768;49.906;19.384;2022-12-07T09:38:26;9.80;;;5.40;;
76814;SDS011;65768;49.906;19.384;2022-12-07T09:40:54;9.10;;;5.80;;
76814;SDS011;65768;49.906;19.384;2022-12-07T09:43:23;8.60;;;5.50;;
76814;SDS011;65768;49.906;19.384;2022-12-07T09:45:53;13.20;;;6.70;;
76814;SDS011;65768;49.906;19.384;2022-12-07T09:48:29;8.50;;;5.10;;
76814;SDS011;65768;49.906;19.384;2022-12-07T09:51:00;8.80;;;4.60;;
76814;SDS011;65768;49.906;19.384;2022-12-07T09:53:36;15.80;;;8.20;;
76814;SDS011;65768;49.906;19.384;2022-12-07T09:56:05;9.40;;;4.90;;
76814;SDS011;65768;49.906;19.384;2022-12-07T09:58:33;10.40;;;5.60;;
76814;SDS011;65768;49.906;19.384;2022-12-07T10:01:12;6.20;;;4.00;;
76814;SDS011;65768;49.906;19.384;2022-12-07T10:03:45;6.80;;;4.50;;
76814;SDS011;65768;49.906;19.384;2022-12-07T10:06:54;11.70;;;6.60;;
76814;SDS011;65768;49.906;19.384;2022-12-07T10:09:22;12.00;;;7.30;;
76814;SDS011;65768;49.906;19.384;2022-12-07T10:12:06;8.30;;;4.90;;
76814;SDS011;65768;49.906;19.384;2022-12-07T10:14:40;10.10;;;5.90;;
76814;SDS011;65768;49.906;19.384;2022-12-07T10:22:57;9.60;;;5.50;;
76814;SDS011;65768;49.906;19.384;2022-12-07T10:25:34;9.10;;;6.40;;
76814;SDS011;65768;49.906;19.384;2022-12-07T10:33:27;8.90;;;5.90;;
76814;SDS011;65768;49.906;19.384;2022-12-07T10:36:23;9.20;;;6.20;;
76814;SDS011;65768;49.906;19.384;2022-12-07T10:39:16;9.30;;;5.20;;
76814;SDS011;65768;49.906;19.384;2022-12-07T10:44:29;8.20;;;4.30;;
76814;SDS011;65768;49.906;19.384;2022-12-07T11:14:28;6.40;;;2.80;;
76814;SDS011;65768;49.906;19.384;2022-12-07T11:20:17;6.00;;;3.50;;
76814;SDS011;65768;49.906;19.384;2022-12-07T11:31:33;9.80;;;6.30;;
76814;SDS011;65768;49.906;19.384;2022-12-07T11:37:28;11.80;;;5.00;;
76814;SDS011;65768;49.906;19.384;2022-12-07T11:40:05;12.60;;;5.00;;
76814;SDS011;65768;49.906;19.384;2022-12-07T11:42:41;10.10;;;4.80;;
76814;SDS011;65768;49.906;19.384;2022-12-07T11:45:15;13.50;;;6.50;;
76814;SDS011;65768;49.906;19.384;2022-12-07T11:47:59;14.20;;;6.70;;
76814;SDS011;65768;49.906;19.384;2022-12-07T11:50:36;12.40;;;5.70;;
76814;SDS011;65768;49.906;19.384;2022-12-07T12:03:46;6.00;;;3.30;;
76814;SDS011;65768;49.906;19.384;2022-12-07T12:06:18;5.10;;;2.80;;
76814;SDS011;65768;49.906;19.384;2022-12-07T12:08:48;4.90;;;3.00;;
76814;SDS011;65768;49.906;19.384;2022-12-07T12:11:36;3.90;;;2.60;;
76814;SDS011;65768;49.906;19.384;2022-12-07T12:25:04;5.10;;;3.50;;
76814;SDS011;65768;49.906;19.384;2022-12-07T12:27:35;6.40;;;3.50;;
76814;SDS011;65768;49.906;19.384;2022-12-07T12:30:07;8.30;;;4.00;;
76814;SDS011;65768;49.906;19.384;2022-12-07T12:32:52;7.70;;;4.60;;
76814;SDS011;65768;49.906;19.384;2022-12-07T12:35:28;9.50;;;5.00;;
76814;SDS011;65768;49.906;19.384;2022-12-07T12:40:58;8.00;;;5.00;;
76814;SDS011;65768;49.906;19.384;2022-12-07T12:43:44;8.10;;;4.50;;
76814;SDS011;65768;49.906;19.384;2022-12-07T12:51:45;3.10;;;2.30;;
76814;SDS011;65768;49.906;19.384;2022-12-07T13:02:21;6.90;;;3.40;;
76814;SDS011;65768;49.906;19.384;2022-12-07T13:13:00;6.70;;;3.20;;
76814;SDS011;65768;49.906;19.384;2022-12-07T13:15:42;6.70;;;3.40;;
76814;SDS011;65768;49.906;19.384;2022-12-07T13:23:35;5.40;;;4.40;;
76814;SDS011;65768;49.906;19.384;2022-12-07T13:28:48;7.30;;;3.60;;
76814;SDS011;65768;49.906;19.384;2022-12-07T13:31:32;7.00;;;4.20;;
76814;SDS011;65768;49.906;19.384;2022-12-07T13:34:03;7.70;;;4.50;;
76814;SDS011;65768;49.906;19.384;2022-12-07T13:36:33;7.50;;;4.60;;
76814;SDS011;65768;49.906;19.384;2022-12-07T13:41:42;5.20;;;2.60;;
76814;SDS011;65768;49.906;19.384;2022-12-07T13:44:12;4.80;;;2.80;;
76814;SDS011;65768;49.906;19.384;2022-12-07T13:49:30;6.80;;;4.40;;
76814;SDS011;65768;49.906;19.384;2022-12-07T13:54:47;9.20;;;4.80;;
76814;SDS011;65768;49.906;19.384;2022-12-07T13:57:16;10.10;;;4.30;;
76814;SDS011;65768;49.906;19.384;2022-12-07T13:59:45;10.20;;;5.40;;
76814;SDS011;65768;49.906;19.384;2022-12-07T14:02:20;26.80;;;12.00;;
76814;SDS011;65768;49.906;19.384;2022-12-07T14:05:06;20.00;;;8.00;;
76814;SDS011;65768;49.906;19.384;2022-12-07T14:07:56;27.30;;;14.00;;
76814;SDS011;65768;49.906;19.384;2022-12-07T14:10:30;20.70;;;9.20;;
76814;SDS011;65768;49.906;19.384;2022-12-07T14:13:01;13.30;;;6.80;;
76814;SDS011;65768;49.906;19.384;2022-12-07T14:15:49;20.00;;;10.20;;
76814;SDS011;65768;49.906;19.384;2022-12-07T14:18:28;22.20;;;10.20;;
76814;SDS011;65768;49.906;19.384;2022-12-07T14:21:14;18.30;;;7.90;;
76814;SDS011;65768;49.906;19.384;2022-12-07T14:23:46;13.60;;;6.50;;
76814;SDS011;65768;49.906;19.384;2022-12-07T14:26:39;9.70;;;6.20;;
76814;SDS011;65768;49.906;19.384;2022-12-07T14:31:54;19.30;;;9.80;;
76814;SDS011;65768;49.906;19.384;2022-12-07T14:34:24;14.00;;;6.70;;
76814;SDS011;65768;49.906;19.384;2022-12-07T14:36:53;13.50;;;6.10;;
76814;SDS011;65768;49.906;19.384;2022-12-07T14:39:21;16.20;;;8.00;;
76814;SDS011;65768;49.906;19.384;2022-12-07T14:41:49;13.10;;;7.00;;
76814;SDS011;65768;49.906;19.384;2022-12-07T14:44:21;15.90;;;8.00;;
76814;SDS011;65768;49.906;19.384;2022-12-07T14:46:50;13.90;;;7.40;;
76814;SDS011;65768;49.906;19.384;2022-12-07T14:49:19;22.60;;;10.90;;
76814;SDS011;65768;49.906;19.384;2022-12-07T14:51:47;15.40;;;7.90;;
76814;SDS011;65768;49.906;19.384;2022-12-07T14:54:19;12.60;;;7.30;;
76814;SDS011;65768;49.906;19.384;2022-12-07T14:59:17;11.80;;;6.30;;
76814;SDS011;65768;49.906;19.384;2022-12-07T15:01:46;15.20;;;7.70;;
76814;SDS011;65768;49.906;19.384;2022-12-07T15:04:15;13.10;;;6.60;;
76814;SDS011;65768;49.906;19.384;2022-12-07T15:06:53;10.60;;;6.40;;
76814;SDS011;65768;49.906;19.384;2022-12-07T15:09:25;15.20;;;7.50;;
76814;SDS011;65768;49.906;19.384;2022-12-07T15:11:54;19.20;;;9.30;;
76814;SDS011;65768;49.906;19.384;2022-12-07T15:14:21;15.60;;;9.20;;
76814;SDS011;65768;49.906;19.384;2022-12-07T15:16:49;13.30;;;7.00;;
76814;SDS011;65768;49.906;19.384;2022-12-07T15:19:18;15.50;;;8.20;;
76814;SDS011;65768;49.906;19.384;2022-12-07T15:24:18;15.90;;;7.00;;
76814;SDS011;65768;49.906;19.384;2022-12-07T15:26:47;11.90;;;5.50;;
76814;SDS011;65768;49.906;19.384;2022-12-07T15:29:15;9.00;;;5.30;;
76814;SDS011;65768;49.906;19.384;2022-12-07T15:31:44;14.60;;;7.00;;
76814;SDS011;65768;49.906;19.384;2022-12-07T15:34:13;11.50;;;5.30;;
76814;SDS011;65768;49.906;19.384;2022-12-07T15:36:41;10.70;;;4.70;;
76814;SDS011;65768;49.906;19.384;2022-12-07T15:39:09;14.00;;;7.00;;
76814;SDS011;65768;49.906;19.384;2022-12-07T15:41:38;14.30;;;7.00;;
76814;SDS011;65768;49.906;19.384;2022-12-07T15:44:06;10.90;;;5.40;;
76814;SDS011;65768;49.906;19.384;2022-12-07T15:46:56;9.80;;;4.00;;
76814;SDS011;65768;49.906;19.384;2022-12-07T15:49:24;11.70;;;5.80;;
76814;SDS011;65768;49.906;19.384;2022-12-07T15:51:52;9.70;;;5.10;;
76814;SDS011;65768;49.906;19.384;2022-12-07T15:54:22;11.00;;;5.70;;
76814;SDS011;65768;49.906;19.384;2022-12-07T15:56:55;15.70;;;5.80;;
76814;SDS011;65768;49.906;19.384;2022-12-07T15:59:25;14.70;;;6.40;;
76814;SDS011;65768;49.906;19.384;2022-12-07T16:01:54;11.40;;;5.80;;
76814;SDS011;65768;49.906;19.384;2022-12-07T16:04:23;8.50;;;4.30;;
76814;SDS011;65768;49.906;19.384;2022-12-07T16:06:51;9.20;;;3.90;;
76814;SDS011;65768;49.906;19.384;2022-12-07T16:09:19;13.80;;;5.70;;
76814;SDS011;65768;49.906;19.384;2022-12-07T16:11:48;11.00;;;5.40;;
76814;SDS011;65768;49.906;19.384;2022-12-07T16:14:18;11.40;;;5.70;;
76814;SDS011;65768;49.906;19.384;2022-12-07T16:16:46;10.30;;;5.10;;
76814;SDS011;65768;49.906;19.384;2022-12-07T16:19:15;12.80;;;7.00;;
76814;SDS011;65768;49.906;19.384;2022-12-07T16:21:43;12.60;;;5.40;;
76814;SDS011;65768;49.906;19.384;2022-12-07T16:24:11;12.10;;;5.40;;
76814;SDS011;65768;49.906;19.384;2022-12-07T16:26:43;6.70;;;3.60;;
76814;SDS011;65768;49.906;19.384;2022-12-07T16:29:12;15.90;;;5.10;;
76814;SDS011;65768;49.906;19.384;2022-12-07T16:31:40;12.60;;;5.20;;
76814;SDS011;65768;49.906;19.384;2022-12-07T16:34:09;12.00;;;5.10;;
76814;SDS011;65768;49.906;19.384;2022-12-07T16:36:37;12.60;;;5.20;;
76814;SDS011;65768;49.906;19.384;2022-12-07T16:39:05;8.00;;;4.70;;
76814;SDS011;65768;49.906;19.384;2022-12-07T16:41:34;8.80;;;4.10;;
76814;SDS011;65768;49.906;19.384;2022-12-07T16:44:03;8.60;;;3.90;;
76814;SDS011;65768;49.906;19.384;2022-12-07T16:46:33;14.60;;;6.00;;
76814;SDS011;65768;49.906;19.384;2022-12-07T16:49:03;14.00;;;5.70;;
76814;SDS011;65768;49.906;19.384;2022-12-07T16:51:32;13.60;;;6.00;;
76814;SDS011;65768;49.906;19.384;2022-12-07T16:54:03;18.30;;;6.90;;
76814;SDS011;65768;49.906;19.384;2022-12-07T16:56:31;9.60;;;5.30;;
76814;SDS011;65768;49.906;19.384;2022-12-07T16:59:00;13.40;;;6.50;;
76814;SDS011;65768;49.906;19.384;2022-12-07T17:01:28;10.10;;;5.30;;
76814;SDS011;65768;49.906;19.384;2022-12-07T17:03:57;15.40;;;7.00;;
76814;SDS011;65768;49.906;19.384;2022-12-07T17:06:27;12.20;;;5.40;;
76814;SDS011;65768;49.906;19.384;2022-12-07T17:08:57;12.40;;;5.30;;
76814;SDS011;65768;49.906;19.384;2022-12-07T17:11:26;10.30;;;5.40;;
76814;SDS011;65768;49.906;19.384;2022-12-07T17:13:56;10.00;;;4.40;;
76814;SDS011;65768;49.906;19.384;2022-12-07T17:16:57;12.30;;;4.50;;
76814;SDS011;65768;49.906;19.384;2022-12-07T17:19:25;14.50;;;6.60;;
76814;SDS011;65768;49.906;19.384;2022-12-07T17:21:53;10.60;;;5.40;;
76814;SDS011;65768;49.906;19.384;2022-12-07T17:24:21;15.20;;;7.50;;
76814;SDS011;65768;49.906;19.384;2022-12-07T17:26:50;7.10;;;3.60;;
76814;SDS011;65768;49.906;19.384;2022-12-07T17:29:18;13.40;;;6.70;;
76814;SDS011;65768;49.906;19.384;2022-12-07T17:31:47;15.70;;;7.10;;